COSMOPOLIS HILL WA US WA DOT current weather conditions

sailwx.info

Air temperature 8.5° C
Visibility: greater than 1.1 NM
Dewpoint 7.9° C

Last reported at 2019-Dec-06 00:01 UTC.
Time now 2019-Dec-06 01:02 UTC

Location: N 46°56' W 123°44'.
View on Google Maps.

See reports from other nearby stations

  
Tides and Currents Weather Stations Pressure Air Temp Water Temp Dewpoint Dewpoint Depression Visibility Wind Speed Wind Dir Waves Ship Positions
date/time (UTC)wind fromknots sea level pressurealtimeterstation pressurevisibilityair tempwater tempwave heightnotes
2019-Dec-06 00:01 1.1 8.5
2019-Dec-05 23:51 1.1 8.4
2019-Dec-05 23:41 1.1 8.4
2019-Dec-05 23:31 1.1 8.6
2019-Dec-05 23:21 1.1 8.6
2019-Dec-05 23:11 083 1 gusting 2 1.1 8.6
2019-Dec-05 23:01 1.1 8.8
2019-Dec-05 22:51 015 1 gusting 3 1.1 8.8
2019-Dec-05 22:41 020 1 1.1 8.7
2019-Dec-05 22:31 043 1 gusting 5 1.1 8.7
2019-Dec-05 22:24 039 1 gusting 5 1.1 8.8
2019-Dec-05 22:13 346 1 gusting 8 1.1 8.6
2019-Dec-05 22:04 348 2 gusting 7 1.1 8.6
2019-Dec-05 21:51 339 4 gusting 8 1.1 8.6
2019-Dec-05 21:41 347 4 gusting 8 1.1 8.5
2019-Dec-05 21:31 333 4 gusting 8 1.1 8.5
2019-Dec-05 21:21 336 4 gusting 7 1.1 8.3
2019-Dec-05 21:11 335 3 gusting 7 1.1 8.3
2019-Dec-05 21:01 333 3 gusting 6 1.1 8.4
2019-Dec-05 20:51 335 2 gusting 6 1.1 8.4
2019-Dec-05 20:41 349 4 gusting 7 1.1 8.3
2019-Dec-05 20:31 344 4 gusting 8 1.1 8.3
2019-Dec-05 20:21 334 5 gusting 8 1.1 8.2
2019-Dec-05 20:11 340 3 gusting 8 1.1 8.1
2019-Dec-05 20:01 344 3 gusting 7 1.1 8.1
2019-Dec-05 19:51 348 1 gusting 8 1.1 8.0
2019-Dec-05 19:41 341 5 gusting 9 1.1 7.8
2019-Dec-05 19:31 348 4 gusting 8 1.1 7.6
2019-Dec-05 19:21 347 3 gusting 8 1.1 7.5
2019-Dec-05 19:11 334 3 gusting 8 1.1 7.4
2019-Dec-05 19:01 332 4 gusting 8 1.1 7.3
2019-Dec-05 18:51 323 3 gusting 7 1.1 7.4
2019-Dec-05 18:41 067 1 gusting 7 1.1 7.4
2019-Dec-05 18:31 355 3 gusting 6 1.1 7.1
2019-Dec-05 18:21 034 2 gusting 7 1.1 6.8
2019-Dec-05 18:11 344 4 gusting 6 1.1 6.7
2019-Dec-05 18:01 009 2 gusting 8 1.1 6.6
2019-Dec-05 17:51 334 3 gusting 8 1.1 6.5
2019-Dec-05 17:41 345 3 gusting 6 1.1 6.4
2019-Dec-05 17:31 354 3 gusting 8 1.1 6.4
2019-Dec-05 17:21 348 4 gusting 8 1.1 6.3
2019-Dec-05 17:11 342 5 gusting 8 1.1 6.2
2019-Dec-05 17:01 355 3 gusting 9 1.1 6.2
2019-Dec-05 16:51 341 3 gusting 7 1.1 6.2
2019-Dec-05 16:41 352 3 gusting 6 1.1 6.3
2019-Dec-05 16:31 030 1 gusting 5 1.1 6.2
2019-Dec-05 16:21 068 1 gusting 5 1.1 6.0
2019-Dec-05 16:11 041 1 gusting 7 1.1 5.8
2019-Dec-05 16:01 052 1 gusting 10 1.1 5.7
2019-Dec-05 15:51 003 4 gusting 13 1.1 5.8
2019-Dec-05 15:44 001 5 gusting 11 1.1 5.9
2019-Dec-05 15:11 339 5 gusting 9 1.1 6.0
2019-Dec-05 14:51 353 4 gusting 9 1.1 6.0
2019-Dec-05 14:42 352 4 gusting 10 1.1 6.0
2019-Dec-05 14:31 336 4 gusting 8 1.1 6.0
2019-Dec-05 14:21 346 5 gusting 13 1.1 6.0
2019-Dec-05 14:11 350 7 gusting 14 1.1 6.0
2019-Dec-05 14:01 340 6 gusting 10 1.1 5.9
2019-Dec-05 13:51 342 5 gusting 10 1.1 5.9
2019-Dec-05 13:41 343 7 gusting 12 1.1 5.9
2019-Dec-05 13:31 346 5 gusting 10 1.1 5.9
2019-Dec-05 13:21 001 5 gusting 14 1.1 5.9
2019-Dec-05 13:11 356 5 gusting 13 1.1 5.9
2019-Dec-05 13:01 347 6 gusting 11 1.1 5.8
2019-Dec-05 12:51 334 5 gusting 10 1.1 5.8
2019-Dec-05 12:41 020 2 gusting 12 1.1 5.8
2019-Dec-05 12:31 1.1 5.7
2019-Dec-05 12:21 010 2 gusting 11 1.1 5.8
2019-Dec-05 12:12 357 8 gusting 12 1.1 5.8
2019-Dec-05 12:01 352 6 gusting 11 1.1 5.7
2019-Dec-05 11:51 336 6 gusting 11 1.1 5.8
2019-Dec-05 11:43 337 5 gusting 10 1.1 6.0
2019-Dec-05 11:31 359 7 gusting 14 1.1 6.1
2019-Dec-05 11:21 002 5 gusting 12 1.1 6.0
2019-Dec-05 11:11 348 7 gusting 11 1.1 6.0
2019-Dec-05 11:01 343 5 gusting 10 1.1 5.9
2019-Dec-05 10:52 348 6 gusting 12 1.1 6.0
2019-Dec-05 10:41 350 5 gusting 10 1.1 6.1
2019-Dec-05 10:31 355 3 gusting 5 1.1 6.1
2019-Dec-05 10:22 009 1 gusting 3 1.1 6.3
2019-Dec-05 10:11 010 2 gusting 7 1.1 6.4
2019-Dec-05 10:01 064 1 gusting 7 1.1 6.3
2019-Dec-05 09:51 001 3 gusting 7 1.1 6.4
2019-Dec-05 09:43 027 1 gusting 7 1.1 6.3
2019-Dec-05 09:33 027 1 gusting 10 1.1 6.5
2019-Dec-05 09:24 011 2 gusting 10 1.1 6.6
2019-Dec-05 09:13 343 5 gusting 11 1.1 6.7
2019-Dec-05 09:02 353 6 gusting 11 1.1 6.8
2019-Dec-05 08:51 353 5 gusting 10 1.1 6.9
2019-Dec-05 08:41 345 6 gusting 10 1.1 6.9
2019-Dec-05 08:31 348 5 gusting 9 1.1 6.9
2019-Dec-05 08:21 343 6 gusting 11 1.1 7.0
2019-Dec-05 08:11 353 6 gusting 12 1.1 7.1
2019-Dec-05 08:02 356 5 gusting 11 1.1 7.2
2019-Dec-05 07:51 351 6 gusting 10 1.1 7.4
2019-Dec-05 07:31 342 5 gusting 10 1.1 7.6
2019-Dec-05 07:21 354 5 gusting 8 1.1 7.6
2019-Dec-05 07:11 345 4 gusting 8 1.1 7.6
2019-Dec-05 07:01 348 3 gusting 8 1.1 7.6
2019-Dec-05 06:51 342 3 gusting 8 1.1 7.7
2019-Dec-05 06:41 352 4 gusting 9 1.1 7.7
2019-Dec-05 06:31 338 4 gusting 8 1.1 7.7
2019-Dec-05 06:21 008 3 gusting 8 1.1 7.7
2019-Dec-05 06:11 359 2 gusting 12 1.1 7.7
2019-Dec-05 06:01 007 2 gusting 12 1.1 7.8
2019-Dec-05 05:51 018 3 gusting 8 1.1 7.7
2019-Dec-05 05:42 1.1 7.8
2019-Dec-05 05:32 345 5 gusting 10 1.1 7.8
2019-Dec-05 05:21 013 3 gusting 9 1.1 7.9
2019-Dec-05 05:11 006 2 gusting 9 1.1 7.9
2019-Dec-05 05:01 336 3 gusting 9 1.1 7.9
2019-Dec-05 04:51 346 5 gusting 9 1.1 8.0
2019-Dec-05 04:41 343 4 gusting 9 1.1 8.0
2019-Dec-05 04:31 324 3 gusting 7 0.8 8.1
2019-Dec-05 04:21 323 3 gusting 7 1.1 8.1
2019-Dec-05 04:12 320 2 gusting 5 1.1 8.2
2019-Dec-05 04:03 320 3 gusting 7 1.1 8.2
2019-Dec-05 03:53 347 3 gusting 5 1.1 8.3
2019-Dec-05 03:42 027 1 gusting 5 1.1 8.2
2019-Dec-05 03:31 002 4 gusting 8 1.1 8.2
2019-Dec-05 03:22 1.1 8.1
2019-Dec-05 03:12 343 4 gusting 10 1.1 8.2
2019-Dec-05 03:01 357 4 gusting 10 1.1 8.4
2019-Dec-05 02:52 353 3 gusting 6 0.9 8.5
2019-Dec-05 02:43 357 2 gusting 6 0.5 8.6
2019-Dec-05 02:33 005 2 gusting 4 0.7 8.6
2019-Dec-05 02:24 357 2 gusting 5 1.1 8.6
2019-Dec-05 02:12 336 2 gusting 5 0.4 8.7
2019-Dec-05 02:01 342 2 gusting 5 0.4 8.7
2019-Dec-05 01:51 332 2 gusting 4 1.1 8.7
2019-Dec-05 01:41 0.5 8.7
2019-Dec-05 01:31 318 2 gusting 4 0.4 8.7
2019-Dec-05 01:21 320 2 gusting 3 0.4 8.7
2019-Dec-05 01:11 321 2 gusting 5 0.5 8.7
2019-Dec-05 01:01 324 2 gusting 6 0.4 8.7
2019-Dec-05 00:51 315 2 gusting 5 0.8 8.7
2019-Dec-05 00:41 331 1 gusting 4 1.1 8.8
2019-Dec-05 00:31 344 2 gusting 4 1.1 8.8
2019-Dec-05 00:21 020 1 gusting 4 0.6 8.8
2019-Dec-05 00:11 334 2 gusting 3 0.5 8.8
2019-Dec-05 00:01 314 2 gusting 4 0.4 8.9
2019-Dec-04 23:51 324 2 gusting 3 0.5 9.0
2019-Dec-04 23:41 295 1 gusting 2 1.0 9.0
2019-Dec-04 23:31 317 1 gusting 2 1.1 8.9
2019-Dec-04 23:21 292 1 gusting 3 0.5 8.9
2019-Dec-04 23:11 286 1 gusting 3 0.8 8.9
2019-Dec-04 23:01 291 2 gusting 3 1.1 8.9
2019-Dec-04 22:51 304 1 gusting 2 0.4 8.9
2019-Dec-04 22:41 316 1 gusting 2 0.2 8.9
2019-Dec-04 22:31 289 1 gusting 3 0.2 8.9
2019-Dec-04 22:21 292 1 gusting 2 0.2 8.9
2019-Dec-04 22:12 278 1 gusting 3 0.2 8.9
2019-Dec-04 22:01 293 1 0.2 9.1
2019-Dec-04 21:51 0.3 9.1
2019-Dec-04 21:41 337 1 gusting 1 0.2 8.9
2019-Dec-04 21:31 287 1 gusting 1 0.2 9.1
2019-Dec-04 21:21 296 1 0.3 9.1
2019-Dec-04 21:11 0.2 8.8
2019-Dec-04 21:01 265 1 gusting 2 0.2 9.0
2019-Dec-04 20:51 296 1 0.3 9.1
2019-Dec-04 20:41 0.6 9.3
2019-Dec-04 20:31 0.5 9.2
2019-Dec-04 20:21 0.5 9.0
2019-Dec-04 20:11 272 1 gusting 2 0.3 9.0
2019-Dec-04 20:01 264 1 gusting 2 0.3 8.6
2019-Dec-04 19:51 280 0 gusting 1 0.4 8.3
2019-Dec-04 19:41 262 1 gusting 2 0.4 7.9
2019-Dec-04 19:31 274 1 gusting 2 0.4 7.8
2019-Dec-04 19:21 1.0 8.4
2019-Dec-04 19:11 156 1 gusting 2 0.4 8.5
2019-Dec-04 19:01 254 1 gusting 1 0.3 7.9
2019-Dec-04 18:54 205 1 gusting 3 1.1 8.7
2019-Dec-04 18:44 119 1 gusting 1 0.9 8.7
2019-Dec-04 18:31 110 1 gusting 1 0.4 8.1
2019-Dec-04 18:24 099 1 gusting 2 0.4 8.1
2019-Dec-04 18:14 100 1 gusting 2 0.5 8.1
2019-Dec-04 18:04 0.4 8.0
2019-Dec-04 17:54 094 1 gusting 2 0.5 8.0
2019-Dec-04 17:41 0.6 8.0
2019-Dec-04 17:31 0.5 7.9
2019-Dec-04 17:21 0.5 8.0
2019-Dec-04 17:11 095 0 gusting 1 1.0 8.2
2019-Dec-04 17:01 093 1 gusting 2 1.1 8.2
2019-Dec-04 16:51 097 0 gusting 2 1.0 8.0
2019-Dec-04 16:41 098 1 gusting 1 0.7 7.8
2019-Dec-04 16:31 097 1 gusting 1 0.5 7.5
2019-Dec-04 16:21 104 1 gusting 1 0.4 7.4
2019-Dec-04 16:11 098 1 gusting 1 0.4 7.4
2019-Dec-04 16:01 094 1 gusting 2 0.5 7.4
2019-Dec-04 15:51 104 1 gusting 2 0.4 7.4
2019-Dec-04 15:41 097 1 gusting 2 0.5 7.4
2019-Dec-04 15:31 087 1 gusting 2 0.5 7.4
2019-Dec-04 15:21 105 1 gusting 1 0.5 7.4
2019-Dec-04 15:11 100 1 gusting 2 0.4 7.3
2019-Dec-04 15:01 096 1 gusting 2 0.5 7.6
2019-Dec-04 14:51 097 1 gusting 2 0.6 7.6
2019-Dec-04 14:41 098 1 gusting 1 0.6 7.4
2019-Dec-04 14:31 108 1 gusting 2 0.5 7.2
2019-Dec-04 14:21 097 1 gusting 2 0.5 7.1
2019-Dec-04 14:11 095 1 gusting 2 0.5 6.9
2019-Dec-04 14:01 094 1 gusting 2 0.4 6.5
2019-Dec-04 13:52 095 1 gusting 2 0.4 6.4
2019-Dec-04 13:41 092 1 gusting 2 0.4 6.4
2019-Dec-04 13:31 088 1 gusting 2 0.5 6.5
2019-Dec-04 13:21 089 1 gusting 1 0.6 6.7
2019-Dec-04 13:11 1.0 6.6
2019-Dec-04 13:01 0.9 6.5
2019-Dec-04 12:51 1.0 6.3
2019-Dec-04 12:41 0.9 6.7
2019-Dec-04 12:31 0.9 6.7
2019-Dec-04 12:21 0.6 6.6
2019-Dec-04 12:11 0.7 6.7
2019-Dec-04 12:01 092 1 gusting 1 1.0 6.8
2019-Dec-04 11:51 1.1 6.3
2019-Dec-04 11:41 1.1 6.6
2019-Dec-04 11:31 090 1 gusting 1 1.1 6.9
2019-Dec-04 11:21 089 1 gusting 1 1.1 6.9
2019-Dec-04 11:11 092 1 1.1 6.9
2019-Dec-04 11:01 1.1 7.0
2019-Dec-04 10:51 1.1 7.1
2019-Dec-04 10:41 091 1 gusting 1 1.1 7.3
2019-Dec-04 10:31 088 1 gusting 1 1.1 7.3
2019-Dec-04 10:21 090 1 1.1 7.2
2019-Dec-04 10:11 1.1 7.1
2019-Dec-04 10:01 093 1 gusting 2 1.1 7.1
2019-Dec-04 09:51 093 1 gusting 2 1.1 7.0
2019-Dec-04 09:41 103 1 gusting 2 1.1 7.0
2019-Dec-04 09:31 103 1 gusting 2 1.1 6.8
2019-Dec-04 09:21 101 1 gusting 2 1.1 6.8
2019-Dec-04 09:12 093 1 gusting 2 1.1 6.5
2019-Dec-04 09:01 098 1 gusting 2 0.7 6.3
2019-Dec-04 08:51 095 1 gusting 2 0.6 6.3
2019-Dec-04 08:41 093 1 gusting 2 1.1 6.4
2019-Dec-04 08:31 093 1 gusting 1 1.1 6.8
2019-Dec-04 08:21 100 1 gusting 1 1.1 7.3
2019-Dec-04 08:11 100 0 gusting 1 1.1 7.3
2019-Dec-04 08:02 1.1 7.0
2019-Dec-04 07:51 1.1 6.9
2019-Dec-04 07:41 321 1 gusting 1 1.1 6.5
2019-Dec-04 07:31 269 1 1.1 6.7
2019-Dec-04 07:21 1.1 6.7
2019-Dec-04 07:11 094 1 gusting 2 1.1 6.7
2019-Dec-04 07:01 092 1 gusting 1 1.1 6.8
2019-Dec-04 06:51 040 1 gusting 2 1.1 6.8
2019-Dec-04 06:41 346 0 1.1 6.6
2019-Dec-04 06:31 1.1 6.6
2019-Dec-04 06:22 083 1 gusting 3 1.1 6.8
2019-Dec-04 06:14 089 1 gusting 1 1.1 6.8
2019-Dec-04 06:04 1.1 7.1
2019-Dec-04 05:54 1.1 7.2
2019-Dec-04 05:44 006 2 gusting 3 1.1 7.3
2019-Dec-04 05:34 353 2 gusting 3 1.1 7.1
2019-Dec-04 05:21 354 2 gusting 3 1.1 7.1
2019-Dec-04 05:11 035 1 gusting 3 1.1 7.0
2019-Dec-04 05:01 008 3 gusting 4 1.1 6.9
2019-Dec-04 04:51 349 3 gusting 5 1.1 6.9
2019-Dec-04 04:41 351 3 gusting 4 1.1 7.1
2019-Dec-04 04:31 021 1 gusting 3 1.1 7.1
2019-Dec-04 04:21 1.1 7.2
2019-Dec-04 04:11 015 2 gusting 5 1.1 7.1
2019-Dec-04 04:01 002 3 gusting 5 1.1 7.2
2019-Dec-04 03:51 018 1 gusting 3 1.1 7.7
2019-Dec-04 03:41 074 1 gusting 2 1.1 7.9
2019-Dec-04 03:31 075 1 gusting 3 1.1 7.0
2019-Dec-04 03:21 1.1 7.5
2019-Dec-04 03:11 1.1 7.0
2019-Dec-04 03:02 354 1 gusting 3 1.1 7.0
2019-Dec-04 02:51 1.1 7.2
2019-Dec-04 02:41 1.1 7.5
2019-Dec-04 02:31 1.1 7.5
2019-Dec-04 02:21 086 1 gusting 1 1.1 7.7
2019-Dec-04 02:12 1.1 7.6
2019-Dec-04 02:01 1.1 7.4
2019-Dec-04 01:53 077 1 1.1 7.2
2019-Dec-04 01:41 1.1 7.2
2019-Dec-04 01:31 091 0 gusting 1 1.1 7.2
2019-Dec-04 01:21 088 1 gusting 3 1.1 7.4
2019-Dec-04 01:11 355 3 gusting 4 1.1 7.1
2019-Dec-04 01:01 327 0 1.1 7.6